createdAt,value
2023-03-22T00:00:00.600Z,7.90
2023-03-22T00:02:27.988Z,7.80
2023-03-22T00:04:54.997Z,7.80
2023-03-22T00:07:22.038Z,7.80
2023-03-22T00:09:48.908Z,7.70
2023-03-22T00:12:17.056Z,7.70
2023-03-22T00:14:45.629Z,7.60
2023-03-22T00:17:13.761Z,7.60
2023-03-22T00:19:42.225Z,7.60
2023-03-22T00:22:09.130Z,7.60
2023-03-22T00:24:37.293Z,7.60
2023-03-22T00:27:04.405Z,7.50
2023-03-22T00:29:31.296Z,7.40
2023-03-22T00:32:01.205Z,7.50
2023-03-22T00:34:32.959Z,7.50
2023-03-22T00:37:04.741Z,7.50
2023-03-22T00:39:32.472Z,7.40
2023-03-22T00:41:59.773Z,7.40
2023-03-22T00:44:29.017Z,7.40
2023-03-22T00:46:56.876Z,7.40
2023-03-22T00:49:25.998Z,7.30
2023-03-22T00:51:59.056Z,7.30
2023-03-22T00:54:26.020Z,7.20
2023-03-22T00:56:53.832Z,7.20
2023-03-22T00:59:24.330Z,7.20
2023-03-22T01:01:53.342Z,7.20
2023-03-22T01:04:26.117Z,7.10
2023-03-22T01:06:59.344Z,7.00
2023-03-22T01:09:31.939Z,6.90
2023-03-22T01:11:59.963Z,6.90
2023-03-22T01:14:28.111Z,6.90
2023-03-22T01:16:57.449Z,6.80
2023-03-22T01:19:25.073Z,6.80
2023-03-22T01:21:52.076Z,6.80
2023-03-22T01:24:19.242Z,6.70
2023-03-22T01:26:47.129Z,6.60
2023-03-22T01:29:14.128Z,6.60
2023-03-22T01:31:44.592Z,6.50
2023-03-22T01:34:12.654Z,6.50
2023-03-22T01:36:39.584Z,6.60
2023-03-22T01:39:08.235Z,6.50
2023-03-22T01:41:37.435Z,6.50
2023-03-22T01:44:15.792Z,6.50
2023-03-22T01:46:46.738Z,6.50
2023-03-22T01:49:19.754Z,6.40
2023-03-22T01:51:50.657Z,6.40
2023-03-22T01:54:37.896Z,6.30
2023-03-22T01:57:18.583Z,6.20
2023-03-22T01:59:47.485Z,6.20
2023-03-22T02:02:25.746Z,6.30
2023-03-22T02:05:01.268Z,6.30
2023-03-22T02:07:31.828Z,6.20
2023-03-22T02:09:59.921Z,6.10
2023-03-22T02:13:07.171Z,6.20
2023-03-22T02:16:14.006Z,6.20
2023-03-22T02:19:19.150Z,6.10
2023-03-22T02:22:17.053Z,6.10
2023-03-22T02:25:19.440Z,6.00
2023-03-22T02:27:51.195Z,5.90
2023-03-22T02:30:35.432Z,5.80
2023-03-22T02:33:30.928Z,5.70
2023-03-22T02:36:16.857Z,5.70
2023-03-22T02:39:10.773Z,5.70
2023-03-22T02:42:18.678Z,5.60
2023-03-22T02:45:12.819Z,5.50
2023-03-22T02:47:54.533Z,5.50
2023-03-22T02:50:40.690Z,5.40
2023-03-22T02:53:33.024Z,5.50
2023-03-22T02:56:02.879Z,5.40
2023-03-22T02:58:47.856Z,5.40
2023-03-22T03:01:28.275Z,5.40
2023-03-22T03:03:59.914Z,5.40
2023-03-22T03:06:32.335Z,5.40
2023-03-22T03:09:05.063Z,5.30
2023-03-22T03:11:32.521Z,5.20
2023-03-22T03:14:01.853Z,5.30
2023-03-22T03:16:35.155Z,5.20
2023-03-22T03:19:28.242Z,5.20
2023-03-22T03:22:13.130Z,5.00
2023-03-22T03:24:49.065Z,5.00
2023-03-22T03:27:23.507Z,5.00
2023-03-22T03:30:12.824Z,5.00
2023-03-22T03:32:54.682Z,4.90
2023-03-22T03:35:40.877Z,4.80
2023-03-22T03:38:28.380Z,4.80
2023-03-22T03:41:02.215Z,4.80
2023-03-22T03:43:30.776Z,4.80
2023-03-22T03:46:00.016Z,4.80
2023-03-22T03:48:34.170Z,4.80
2023-03-22T03:51:09.074Z,4.70
2023-03-22T03:53:36.572Z,4.70
2023-03-22T03:56:03.619Z,4.60
2023-03-22T03:58:37.584Z,4.50
2023-03-22T04:01:05.037Z,4.50
2023-03-22T04:03:35.454Z,4.50
2023-03-22T04:06:06.460Z,4.40
2023-03-22T04:08:39.625Z,4.40
2023-03-22T04:11:07.233Z,4.40
2023-03-22T04:13:35.212Z,4.40
2023-03-22T04:16:06.625Z,4.50
2023-03-22T04:18:36.743Z,4.50
2023-03-22T04:21:09.124Z,4.50
2023-03-22T04:23:48.508Z,4.50
2023-03-22T04:26:16.766Z,4.50
2023-03-22T04:28:55.327Z,4.50
2023-03-22T04:31:22.386Z,4.40
2023-03-22T04:34:00.371Z,4.30
2023-03-22T04:36:39.601Z,4.40
2023-03-22T04:39:32.599Z,4.40
2023-03-22T04:42:17.541Z,4.40
2023-03-22T04:44:46.166Z,4.40
2023-03-22T04:47:13.143Z,4.50
2023-03-22T04:49:40.910Z,4.40
2023-03-22T04:52:08.382Z,4.40
2023-03-22T04:54:37.637Z,4.40
2023-03-22T04:57:07.568Z,4.30
2023-03-22T04:59:40.055Z,4.30
2023-03-22T05:02:09.715Z,4.30
2023-03-22T05:04:41.807Z,4.40
2023-03-22T05:07:36.611Z,4.40
2023-03-22T05:10:05.677Z,4.50
2023-03-22T05:12:32.661Z,4.50
2023-03-22T05:15:14.301Z,4.50
2023-03-22T05:17:44.538Z,4.50
2023-03-22T05:20:11.670Z,4.50
2023-03-22T05:22:41.444Z,4.50
2023-03-22T05:25:12.610Z,4.50
2023-03-22T05:27:44.172Z,4.50
2023-03-22T05:30:32.239Z,4.60
2023-03-22T05:33:05.616Z,4.50
2023-03-22T05:35:40.059Z,4.60
2023-03-22T05:38:10.251Z,4.70
2023-03-22T05:40:41.969Z,4.70
2023-03-22T05:43:09.130Z,4.70
2023-03-22T05:45:39.786Z,4.80
2023-03-22T05:48:29.520Z,4.80
2023-03-22T05:50:56.518Z,4.90
2023-03-22T05:53:23.949Z,4.90
2023-03-22T05:56:00.682Z,5.00
2023-03-22T05:58:30.891Z,5.10
2023-03-22T06:01:04.237Z,5.20
2023-03-22T06:03:56.498Z,5.10
2023-03-22T06:06:34.505Z,5.20
2023-03-22T06:09:16.751Z,5.30
2023-03-22T06:11:48.130Z,5.30
2023-03-22T06:14:17.797Z,5.40
2023-03-22T06:17:01.666Z,5.50
2023-03-22T06:19:28.812Z,5.60
2023-03-22T06:21:56.719Z,5.50
2023-03-22T06:24:26.718Z,5.50
2023-03-22T06:26:53.881Z,5.60
2023-03-22T06:29:22.074Z,5.80
2023-03-22T06:31:52.205Z,5.90
2023-03-22T06:34:19.840Z,5.90
2023-03-22T06:36:49.341Z,5.90
2023-03-22T06:39:26.012Z,5.90
2023-03-22T06:41:53.784Z,5.90
2023-03-22T06:44:22.855Z,6.10
2023-03-22T06:46:51.565Z,6.10
2023-03-22T06:49:45.969Z,6.30
2023-03-22T06:52:19.716Z,6.40
2023-03-22T06:54:47.128Z,6.40
2023-03-22T06:57:14.601Z,6.40
2023-03-22T06:59:41.577Z,6.60
2023-03-22T07:02:12.497Z,6.70
2023-03-22T07:04:42.597Z,6.80
2023-03-22T07:07:09.576Z,6.90
2023-03-22T07:09:36.523Z,6.90
2023-03-22T07:12:05.071Z,7.10
2023-03-22T07:14:32.154Z,7.20
2023-03-22T07:17:21.950Z,7.30
2023-03-22T07:19:49.360Z,7.40
2023-03-22T07:22:16.904Z,7.60
2023-03-22T07:24:56.172Z,7.70
2023-03-22T07:27:26.110Z,7.80
2023-03-22T07:29:55.787Z,7.90
2023-03-22T07:32:23.387Z,8.00
2023-03-22T07:35:02.711Z,8.10
2023-03-22T07:37:30.835Z,8.20
2023-03-22T07:39:59.242Z,8.30
2023-03-22T07:42:31.221Z,8.30
2023-03-22T07:45:18.159Z,8.40
2023-03-22T07:47:45.389Z,8.50
2023-03-22T07:50:35.571Z,8.60
2023-03-22T07:53:05.118Z,8.80
2023-03-22T07:55:32.094Z,8.90
2023-03-22T07:58:00.564Z,9.00
2023-03-22T08:00:31.788Z,9.10
2023-03-22T08:03:19.904Z,9.20
2023-03-22T08:06:01.960Z,9.50
2023-03-22T08:08:31.416Z,9.70
2023-03-22T08:10:59.428Z,9.80
2023-03-22T08:13:26.658Z,10.00
2023-03-22T08:15:55.158Z,10.10
2023-03-22T08:18:24.867Z,10.20
2023-03-22T08:20:59.926Z,10.40
2023-03-22T08:23:40.806Z,10.40
2023-03-22T08:26:27.376Z,10.50
2023-03-22T08:28:57.482Z,10.60
2023-03-22T08:31:26.322Z,10.70
2023-03-22T08:33:54.184Z,10.90
2023-03-22T08:36:24.873Z,10.80
2023-03-22T08:39:00.013Z,10.90
2023-03-22T08:41:52.747Z,10.90
2023-03-22T08:44:21.474Z,10.90
2023-03-22T08:46:48.663Z,10.90
2023-03-22T08:49:17.103Z,10.90
2023-03-22T08:51:57.990Z,10.90
2023-03-22T08:54:56.331Z,10.90
2023-03-22T08:57:41.578Z,10.80
2023-03-22T09:00:47.627Z,10.90
2023-03-22T09:03:35.682Z,11.00
2023-03-22T09:06:03.275Z,11.10
2023-03-22T09:08:36.251Z,11.20
2023-03-22T09:11:12.484Z,11.10
2023-03-22T09:13:39.622Z,11.10
2023-03-22T09:16:08.869Z,11.10
2023-03-22T09:18:40.152Z,11.20
2023-03-22T09:21:14.442Z,11.10
2023-03-22T09:23:50.845Z,11.00
2023-03-22T09:26:22.915Z,11.00
2023-03-22T09:28:51.928Z,10.90
2023-03-22T09:31:20.529Z,11.00
2023-03-22T09:33:53.580Z,11.00
2023-03-22T09:36:20.744Z,11.00
2023-03-22T09:38:49.898Z,11.10
2023-03-22T09:41:36.266Z,11.10
2023-03-22T09:44:08.308Z,11.10
2023-03-22T09:46:43.102Z,11.20
2023-03-22T09:49:21.193Z,11.20
2023-03-22T09:51:53.570Z,11.30
2023-03-22T09:54:30.190Z,11.30
2023-03-22T09:57:05.217Z,11.40
2023-03-22T09:59:53.809Z,11.40
2023-03-22T10:02:33.943Z,11.50
2023-03-22T10:05:20.535Z,11.60
2023-03-22T10:08:05.968Z,11.60
2023-03-22T10:10:35.865Z,11.70
2023-03-22T10:13:22.662Z,11.70
2023-03-22T10:15:55.911Z,11.70
2023-03-22T10:18:28.315Z,11.70
2023-03-22T10:21:03.696Z,11.70
2023-03-22T10:23:44.014Z,11.70
2023-03-22T10:26:23.381Z,11.70
2023-03-22T10:29:03.997Z,11.70
2023-03-22T10:31:33.879Z,11.70
2023-03-22T10:34:31.906Z,11.80
2023-03-22T10:37:04.697Z,11.70
2023-03-22T10:39:56.499Z,11.70
2023-03-22T10:42:30.994Z,11.70
2023-03-22T10:45:30.205Z,11.80
2023-03-22T10:48:11.623Z,11.80
2023-03-22T10:50:44.682Z,11.70
2023-03-22T10:53:14.787Z,11.80
2023-03-22T10:55:43.884Z,11.80
2023-03-22T10:58:21.933Z,11.80
2023-03-22T11:00:54.561Z,12.00
2023-03-22T11:03:36.653Z,12.00
2023-03-22T11:06:13.319Z,12.10
2023-03-22T11:08:45.052Z,12.00
2023-03-22T11:11:47.498Z,12.00
2023-03-22T11:14:21.374Z,12.00
2023-03-22T11:16:59.402Z,12.00
2023-03-22T11:19:34.748Z,12.00
2023-03-22T11:22:05.971Z,12.00
2023-03-22T11:24:34.151Z,12.00
2023-03-22T11:27:18.565Z,12.00
2023-03-22T11:29:49.564Z,12.00
2023-03-22T11:32:36.166Z,12.00
2023-03-22T11:35:15.912Z,12.10
2023-03-22T11:37:50.076Z,12.20
2023-03-22T11:40:26.099Z,12.10
2023-03-22T11:46:04.097Z,12.20
2023-03-22T11:48:33.209Z,12.30
2023-03-22T11:51:19.320Z,12.20
2023-03-22T11:53:49.335Z,12.30
2023-03-22T11:56:25.926Z,12.20
2023-03-22T11:59:04.170Z,12.20
2023-03-22T12:01:43.135Z,12.20
2023-03-22T12:04:16.489Z,12.30
2023-03-22T12:06:44.917Z,12.30
2023-03-22T12:09:31.308Z,12.50
2023-03-22T12:12:01.002Z,12.60
2023-03-22T12:14:46.787Z,12.70
2023-03-22T12:17:26.599Z,12.70
2023-03-22T12:20:12.305Z,12.70
2023-03-22T12:22:45.639Z,12.70
2023-03-22T12:25:18.358Z,12.80
2023-03-22T12:27:58.536Z,12.80
2023-03-22T12:30:33.753Z,12.90
2023-03-22T12:33:28.954Z,12.90
2023-03-22T12:35:58.849Z,13.00
2023-03-22T12:38:41.718Z,13.10
2023-03-22T12:41:14.581Z,13.10
2023-03-22T12:44:03.996Z,13.20
2023-03-22T12:46:35.679Z,13.20
2023-03-22T12:49:05.372Z,13.20
2023-03-22T12:51:32.280Z,13.20
2023-03-22T12:54:01.994Z,13.20
2023-03-22T12:56:41.164Z,13.20
2023-03-22T12:59:21.352Z,13.20
2023-03-22T13:01:56.714Z,13.20
2023-03-22T13:04:35.479Z,13.20
2023-03-22T13:07:13.853Z,13.10
2023-03-22T13:09:46.574Z,13.00
2023-03-22T13:12:24.545Z,13.10
2023-03-22T13:15:17.439Z,13.20
2023-03-22T13:17:46.942Z,13.10
2023-03-22T13:20:14.825Z,13.20
2023-03-22T13:22:41.738Z,13.20
2023-03-22T13:25:14.543Z,13.20
2023-03-22T13:28:04.402Z,13.20
2023-03-22T13:30:49.276Z,13.20
2023-03-22T13:33:36.873Z,13.20
2023-03-22T13:36:08.875Z,13.20
2023-03-22T13:38:42.547Z,13.20
2023-03-22T13:41:40.452Z,13.20
2023-03-22T13:44:30.224Z,13.30
2023-03-22T13:47:01.941Z,13.20
2023-03-22T13:49:49.701Z,13.20
2023-03-22T13:52:41.924Z,13.30
2023-03-22T13:55:49.695Z,13.30
2023-03-22T13:58:39.965Z,13.30
2023-03-22T14:01:26.911Z,13.40
2023-03-22T14:03:57.239Z,13.40
2023-03-22T14:06:33.173Z,13.40
2023-03-22T14:09:18.464Z,13.40
2023-03-22T14:12:05.441Z,13.50
2023-03-22T14:14:46.979Z,13.40
2023-03-22T14:17:36.113Z,13.40
2023-03-22T14:20:10.908Z,13.40
